sensor_id;sensor_type;location;lat;lon;timestamp;P1;durP1;ratioP1;P2;durP2;ratioP2
80732;SDS011;70130;44.534;18.678;2023-09-07T00:00:47;9.25;;;8.18;;
80732;SDS011;70130;44.534;18.678;2023-09-07T00:03:16;10.65;;;7.95;;
80732;SDS011;70130;44.534;18.678;2023-09-07T00:05:41;11.15;;;7.78;;
80732;SDS011;70130;44.534;18.678;2023-09-07T00:08:07;11.40;;;9.60;;
80732;SDS011;70130;44.534;18.678;2023-09-07T00:10:33;10.85;;;8.52;;
80732;SDS011;70130;44.534;18.678;2023-09-07T00:13:04;10.23;;;7.75;;
80732;SDS011;70130;44.534;18.678;2023-09-07T00:15:36;9.40;;;7.38;;
80732;SDS011;70130;44.534;18.678;2023-09-07T00:18:03;9.30;;;7.28;;
80732;SDS011;70130;44.534;18.678;2023-09-07T00:20:32;9.93;;;7.15;;
80732;SDS011;70130;44.534;18.678;2023-09-07T00:23:10;8.48;;;7.25;;
80732;SDS011;70130;44.534;18.678;2023-09-07T00:25:39;10.90;;;7.63;;
80732;SDS011;70130;44.534;18.678;2023-09-07T00:28:07;12.57;;;7.13;;
80732;SDS011;70130;44.534;18.678;2023-09-07T00:30:33;8.48;;;7.13;;
80732;SDS011;70130;44.534;18.678;2023-09-07T00:32:58;8.57;;;6.82;;
80732;SDS011;70130;44.534;18.678;2023-09-07T00:35:24;10.88;;;7.60;;
80732;SDS011;70130;44.534;18.678;2023-09-07T00:37:55;9.93;;;7.80;;
80732;SDS011;70130;44.534;18.678;2023-09-07T00:40:24;9.95;;;6.93;;
80732;SDS011;70130;44.534;18.678;2023-09-07T00:42:51;10.45;;;7.57;;
80732;SDS011;70130;44.534;18.678;2023-09-07T00:45:17;7.85;;;6.75;;
80732;SDS011;70130;44.534;18.678;2023-09-07T00:47:44;13.68;;;6.93;;
80732;SDS011;70130;44.534;18.678;2023-09-07T00:50:13;9.38;;;7.25;;
80732;SDS011;70130;44.534;18.678;2023-09-07T00:52:42;9.43;;;7.28;;
80732;SDS011;70130;44.534;18.678;2023-09-07T00:55:12;9.70;;;7.28;;
80732;SDS011;70130;44.534;18.678;2023-09-07T00:57:41;9.23;;;7.00;;
80732;SDS011;70130;44.534;18.678;2023-09-07T01:00:11;9.20;;;7.45;;
80732;SDS011;70130;44.534;18.678;2023-09-07T01:02:37;9.57;;;7.20;;
80732;SDS011;70130;44.534;18.678;2023-09-07T01:05:05;13.80;;;7.28;;
80732;SDS011;70130;44.534;18.678;2023-09-07T01:07:32;8.52;;;7.07;;
80732;SDS011;70130;44.534;18.678;2023-09-07T01:10:18;9.07;;;7.30;;
80732;SDS011;70130;44.534;18.678;2023-09-07T01:12:45;10.75;;;7.72;;
80732;SDS011;70130;44.534;18.678;2023-09-07T01:15:10;12.98;;;7.88;;
80732;SDS011;70130;44.534;18.678;2023-09-07T01:17:39;11.35;;;7.90;;
80732;SDS011;70130;44.534;18.678;2023-09-07T01:20:09;9.48;;;7.32;;
80732;SDS011;70130;44.534;18.678;2023-09-07T01:22:38;8.57;;;7.18;;
80732;SDS011;70130;44.534;18.678;2023-09-07T01:25:07;9.02;;;7.15;;
80732;SDS011;70130;44.534;18.678;2023-09-07T01:27:36;8.40;;;7.28;;
80732;SDS011;70130;44.534;18.678;2023-09-07T01:30:08;11.70;;;8.02;;
80732;SDS011;70130;44.534;18.678;2023-09-07T01:32:37;10.15;;;7.78;;
80732;SDS011;70130;44.534;18.678;2023-09-07T01:35:05;12.50;;;7.88;;
80732;SDS011;70130;44.534;18.678;2023-09-07T01:37:35;9.60;;;7.03;;
80732;SDS011;70130;44.534;18.678;2023-09-07T01:40:05;10.82;;;7.63;;
80732;SDS011;70130;44.534;18.678;2023-09-07T01:42:35;9.00;;;7.28;;
80732;SDS011;70130;44.534;18.678;2023-09-07T01:45:04;9.73;;;7.88;;
80732;SDS011;70130;44.534;18.678;2023-09-07T01:47:33;10.68;;;7.90;;
80732;SDS011;70130;44.534;18.678;2023-09-07T01:50:02;9.82;;;8.23;;
80732;SDS011;70130;44.534;18.678;2023-09-07T01:52:31;13.48;;;7.75;;
80732;SDS011;70130;44.534;18.678;2023-09-07T01:58:39;11.88;;;7.25;;
80732;SDS011;70130;44.534;18.678;2023-09-07T02:01:25;11.18;;;7.43;;
80732;SDS011;70130;44.534;18.678;2023-09-07T02:03:57;9.07;;;7.38;;
80732;SDS011;70130;44.534;18.678;2023-09-07T02:06:23;12.07;;;7.95;;
80732;SDS011;70130;44.534;18.678;2023-09-07T02:08:48;10.85;;;8.38;;
80732;SDS011;70130;44.534;18.678;2023-09-07T02:11:17;10.43;;;7.72;;
80732;SDS011;70130;44.534;18.678;2023-09-07T02:13:43;10.35;;;7.63;;
80732;SDS011;70130;44.534;18.678;2023-09-07T02:16:11;9.23;;;7.53;;
80732;SDS011;70130;44.534;18.678;2023-09-07T02:18:36;11.38;;;8.10;;
80732;SDS011;70130;44.534;18.678;2023-09-07T02:21:09;8.95;;;7.47;;
80732;SDS011;70130;44.534;18.678;2023-09-07T02:23:38;8.85;;;7.35;;
80732;SDS011;70130;44.534;18.678;2023-09-07T02:26:03;12.57;;;7.18;;
80732;SDS011;70130;44.534;18.678;2023-09-07T02:28:32;11.60;;;7.55;;
80732;SDS011;70130;44.534;18.678;2023-09-07T02:31:04;9.02;;;7.38;;
80732;SDS011;70130;44.534;18.678;2023-09-07T02:33:31;10.57;;;7.25;;
80732;SDS011;70130;44.534;18.678;2023-09-07T02:35:57;11.52;;;7.68;;
80732;SDS011;70130;44.534;18.678;2023-09-07T02:38:27;8.95;;;7.20;;
80732;SDS011;70130;44.534;18.678;2023-09-07T02:40:59;9.93;;;8.05;;
80732;SDS011;70130;44.534;18.678;2023-09-07T02:43:28;9.35;;;7.50;;
80732;SDS011;70130;44.534;18.678;2023-09-07T02:45:57;9.57;;;7.13;;
80732;SDS011;70130;44.534;18.678;2023-09-07T02:48:26;10.60;;;7.32;;
80732;SDS011;70130;44.534;18.678;2023-09-07T02:50:52;9.90;;;8.25;;
80732;SDS011;70130;44.534;18.678;2023-09-07T02:53:20;11.32;;;7.47;;
80732;SDS011;70130;44.534;18.678;2023-09-07T02:55:49;11.00;;;8.27;;
80732;SDS011;70130;44.534;18.678;2023-09-07T02:58:25;10.18;;;7.97;;
80732;SDS011;70130;44.534;18.678;2023-09-07T03:00:54;9.73;;;7.18;;
80732;SDS011;70130;44.534;18.678;2023-09-07T03:03:22;8.05;;;6.93;;
80732;SDS011;70130;44.534;18.678;2023-09-07T03:05:52;9.35;;;7.00;;
80732;SDS011;70130;44.534;18.678;2023-09-07T03:08:17;10.98;;;6.90;;
80732;SDS011;70130;44.534;18.678;2023-09-07T03:10:43;9.80;;;7.35;;
80732;SDS011;70130;44.534;18.678;2023-09-07T03:13:09;8.95;;;7.60;;
80732;SDS011;70130;44.534;18.678;2023-09-07T03:15:39;11.52;;;7.22;;
80732;SDS011;70130;44.534;18.678;2023-09-07T03:18:08;8.48;;;7.32;;
80732;SDS011;70130;44.534;18.678;2023-09-07T03:20:38;8.90;;;7.47;;
80732;SDS011;70130;44.534;18.678;2023-09-07T03:23:07;9.27;;;6.72;;
80732;SDS011;70130;44.534;18.678;2023-09-07T03:25:37;8.98;;;6.82;;
80732;SDS011;70130;44.534;18.678;2023-09-07T03:28:14;9.10;;;6.60;;
80732;SDS011;70130;44.534;18.678;2023-09-07T03:30:43;8.98;;;7.88;;
80732;SDS011;70130;44.534;18.678;2023-09-07T03:33:22;9.52;;;7.07;;
80732;SDS011;70130;44.534;18.678;2023-09-07T03:35:47;8.50;;;6.60;;
80732;SDS011;70130;44.534;18.678;2023-09-07T03:38:13;10.30;;;6.93;;
80732;SDS011;70130;44.534;18.678;2023-09-07T03:43:27;10.68;;;7.75;;
80732;SDS011;70130;44.534;18.678;2023-09-07T03:45:52;9.00;;;6.68;;
80732;SDS011;70130;44.534;18.678;2023-09-07T03:48:21;11.48;;;7.82;;
80732;SDS011;70130;44.534;18.678;2023-09-07T03:50:46;8.65;;;7.15;;
80732;SDS011;70130;44.534;18.678;2023-09-07T03:53:15;9.20;;;6.65;;
80732;SDS011;70130;44.534;18.678;2023-09-07T03:55:45;10.15;;;7.45;;
80732;SDS011;70130;44.534;18.678;2023-09-07T03:58:16;8.95;;;6.95;;
80732;SDS011;70130;44.534;18.678;2023-09-07T04:00:46;8.63;;;6.82;;
80732;SDS011;70130;44.534;18.678;2023-09-07T04:03:13;11.48;;;7.10;;
80732;SDS011;70130;44.534;18.678;2023-09-07T04:05:38;13.70;;;7.18;;
80732;SDS011;70130;44.534;18.678;2023-09-07T04:08:05;9.23;;;7.05;;
80732;SDS011;70130;44.534;18.678;2023-09-07T04:10:32;10.45;;;7.10;;
80732;SDS011;70130;44.534;18.678;2023-09-07T04:12:58;11.50;;;7.65;;
80732;SDS011;70130;44.534;18.678;2023-09-07T04:15:23;11.90;;;7.80;;
80732;SDS011;70130;44.534;18.678;2023-09-07T04:17:54;15.18;;;7.88;;
80732;SDS011;70130;44.534;18.678;2023-09-07T04:20:21;10.95;;;8.25;;
80732;SDS011;70130;44.534;18.678;2023-09-07T04:22:49;11.85;;;7.80;;
80732;SDS011;70130;44.534;18.678;2023-09-07T04:25:15;11.30;;;8.07;;
80732;SDS011;70130;44.534;18.678;2023-09-07T04:27:41;13.38;;;9.50;;
80732;SDS011;70130;44.534;18.678;2023-09-07T04:30:10;9.45;;;7.97;;
80732;SDS011;70130;44.534;18.678;2023-09-07T04:32:37;10.68;;;8.32;;
80732;SDS011;70130;44.534;18.678;2023-09-07T04:35:03;8.93;;;7.40;;
80732;SDS011;70130;44.534;18.678;2023-09-07T04:37:33;12.18;;;8.07;;
80732;SDS011;70130;44.534;18.678;2023-09-07T04:39:58;12.63;;;8.32;;
80732;SDS011;70130;44.534;18.678;2023-09-07T04:42:30;11.77;;;7.90;;
80732;SDS011;70130;44.534;18.678;2023-09-07T04:44:55;14.35;;;8.57;;
80732;SDS011;70130;44.534;18.678;2023-09-07T04:47:33;12.90;;;7.97;;
80732;SDS011;70130;44.534;18.678;2023-09-07T04:50:11;10.05;;;7.20;;
80732;SDS011;70130;44.534;18.678;2023-09-07T04:52:42;14.32;;;8.55;;
80732;SDS011;70130;44.534;18.678;2023-09-07T04:55:07;14.82;;;8.55;;
80732;SDS011;70130;44.534;18.678;2023-09-07T04:57:37;14.55;;;9.82;;
80732;SDS011;70130;44.534;18.678;2023-09-07T05:00:04;12.32;;;9.20;;
80732;SDS011;70130;44.534;18.678;2023-09-07T05:05:06;10.80;;;8.48;;
80732;SDS011;70130;44.534;18.678;2023-09-07T05:07:32;13.52;;;10.00;;
80732;SDS011;70130;44.534;18.678;2023-09-07T05:09:58;15.32;;;9.73;;
80732;SDS011;70130;44.534;18.678;2023-09-07T05:12:29;12.15;;;8.63;;
80732;SDS011;70130;44.534;18.678;2023-09-07T05:14:55;13.45;;;8.57;;
80732;SDS011;70130;44.534;18.678;2023-09-07T05:17:21;11.45;;;8.95;;
80732;SDS011;70130;44.534;18.678;2023-09-07T05:19:46;13.07;;;9.27;;
80732;SDS011;70130;44.534;18.678;2023-09-07T05:22:12;20.60;;;9.23;;
80732;SDS011;70130;44.534;18.678;2023-09-07T05:24:38;13.27;;;9.35;;
80732;SDS011;70130;44.534;18.678;2023-09-07T05:27:04;13.00;;;8.98;;
80732;SDS011;70130;44.534;18.678;2023-09-07T05:29:32;14.65;;;8.82;;
80732;SDS011;70130;44.534;18.678;2023-09-07T05:31:57;12.20;;;8.90;;
80732;SDS011;70130;44.534;18.678;2023-09-07T05:34:23;13.55;;;8.98;;
80732;SDS011;70130;44.534;18.678;2023-09-07T05:36:49;11.75;;;9.45;;
80732;SDS011;70130;44.534;18.678;2023-09-07T05:39:15;12.65;;;9.27;;
80732;SDS011;70130;44.534;18.678;2023-09-07T05:41:40;13.55;;;9.90;;
80732;SDS011;70130;44.534;18.678;2023-09-07T05:44:06;12.13;;;9.35;;
80732;SDS011;70130;44.534;18.678;2023-09-07T05:46:32;18.52;;;9.30;;
80732;SDS011;70130;44.534;18.678;2023-09-07T05:48:58;14.57;;;10.30;;
80732;SDS011;70130;44.534;18.678;2023-09-07T05:51:23;15.43;;;9.90;;
80732;SDS011;70130;44.534;18.678;2023-09-07T05:53:49;17.88;;;9.45;;
80732;SDS011;70130;44.534;18.678;2023-09-07T05:56:15;16.05;;;10.20;;
80732;SDS011;70130;44.534;18.678;2023-09-07T05:58:41;17.98;;;10.95;;
80732;SDS011;70130;44.534;18.678;2023-09-07T06:01:06;17.60;;;10.80;;
80732;SDS011;70130;44.534;18.678;2023-09-07T06:03:33;16.23;;;10.43;;
80732;SDS011;70130;44.534;18.678;2023-09-07T06:06:00;15.30;;;10.90;;
80732;SDS011;70130;44.534;18.678;2023-09-07T06:08:26;19.02;;;11.52;;
80732;SDS011;70130;44.534;18.678;2023-09-07T06:10:52;18.95;;;10.95;;
80732;SDS011;70130;44.534;18.678;2023-09-07T06:13:18;17.35;;;11.20;;
80732;SDS011;70130;44.534;18.678;2023-09-07T06:15:44;15.40;;;11.45;;
80732;SDS011;70130;44.534;18.678;2023-09-07T06:18:10;23.90;;;11.52;;
80732;SDS011;70130;44.534;18.678;2023-09-07T06:20:36;20.05;;;11.93;;
80732;SDS011;70130;44.534;18.678;2023-09-07T06:23:02;18.52;;;11.43;;
80732;SDS011;70130;44.534;18.678;2023-09-07T06:25:28;22.73;;;12.90;;
80732;SDS011;70130;44.534;18.678;2023-09-07T06:27:55;19.50;;;12.07;;
80732;SDS011;70130;44.534;18.678;2023-09-07T06:30:20;21.58;;;12.77;;
80732;SDS011;70130;44.534;18.678;2023-09-07T06:32:46;24.48;;;12.18;;
80732;SDS011;70130;44.534;18.678;2023-09-07T06:35:14;20.38;;;11.43;;
80732;SDS011;70130;44.534;18.678;2023-09-07T06:37:40;19.02;;;12.15;;
80732;SDS011;70130;44.534;18.678;2023-09-07T06:40:09;27.52;;;14.23;;
80732;SDS011;70130;44.534;18.678;2023-09-07T06:42:36;22.90;;;13.60;;
80732;SDS011;70130;44.534;18.678;2023-09-07T06:45:05;18.92;;;11.68;;
80732;SDS011;70130;44.534;18.678;2023-09-07T06:47:32;15.43;;;10.75;;
80732;SDS011;70130;44.534;18.678;2023-09-07T06:49:59;18.33;;;11.15;;
80732;SDS011;70130;44.534;18.678;2023-09-07T06:52:26;14.23;;;10.68;;
80732;SDS011;70130;44.534;18.678;2023-09-07T06:54:55;20.73;;;11.52;;
80732;SDS011;70130;44.534;18.678;2023-09-07T06:57:21;20.23;;;12.02;;
80732;SDS011;70130;44.534;18.678;2023-09-07T06:59:47;16.13;;;11.35;;
80732;SDS011;70130;44.534;18.678;2023-09-07T07:02:14;16.73;;;11.40;;
80732;SDS011;70130;44.534;18.678;2023-09-07T07:04:40;16.40;;;11.27;;
80732;SDS011;70130;44.534;18.678;2023-09-07T07:07:05;17.73;;;11.88;;
80732;SDS011;70130;44.534;18.678;2023-09-07T07:09:31;17.23;;;11.38;;
80732;SDS011;70130;44.534;18.678;2023-09-07T07:11:59;18.85;;;11.18;;
80732;SDS011;70130;44.534;18.678;2023-09-07T07:14:26;17.35;;;11.93;;
80732;SDS011;70130;44.534;18.678;2023-09-07T07:16:52;23.02;;;12.18;;
80732;SDS011;70130;44.534;18.678;2023-09-07T07:19:17;20.05;;;11.63;;
80732;SDS011;70130;44.534;18.678;2023-09-07T07:21:44;16.98;;;11.98;;
80732;SDS011;70130;44.534;18.678;2023-09-07T07:24:10;19.60;;;12.00;;
80732;SDS011;70130;44.534;18.678;2023-09-07T07:26:36;14.68;;;10.75;;
80732;SDS011;70130;44.534;18.678;2023-09-07T07:29:02;16.63;;;10.85;;
80732;SDS011;70130;44.534;18.678;2023-09-07T07:31:31;15.95;;;11.40;;
80732;SDS011;70130;44.534;18.678;2023-09-07T07:33:56;24.88;;;12.05;;
80732;SDS011;70130;44.534;18.678;2023-09-07T07:36:22;21.02;;;11.48;;
80732;SDS011;70130;44.534;18.678;2023-09-07T07:38:48;20.95;;;11.35;;
80732;SDS011;70130;44.534;18.678;2023-09-07T07:41:14;16.95;;;10.85;;
80732;SDS011;70130;44.534;18.678;2023-09-07T07:43:40;19.95;;;11.27;;
80732;SDS011;70130;44.534;18.678;2023-09-07T07:46:07;18.20;;;10.43;;
80732;SDS011;70130;44.534;18.678;2023-09-07T07:48:33;16.73;;;10.25;;
80732;SDS011;70130;44.534;18.678;2023-09-07T07:51:02;20.48;;;11.90;;
80732;SDS011;70130;44.534;18.678;2023-09-07T07:53:30;20.77;;;12.10;;
80732;SDS011;70130;44.534;18.678;2023-09-07T07:55:57;19.88;;;11.55;;
80732;SDS011;70130;44.534;18.678;2023-09-07T07:58:26;18.42;;;11.98;;
80732;SDS011;70130;44.534;18.678;2023-09-07T08:00:52;17.63;;;10.80;;
80732;SDS011;70130;44.534;18.678;2023-09-07T08:03:24;17.00;;;11.32;;
80732;SDS011;70130;44.534;18.678;2023-09-07T08:05:51;19.33;;;12.73;;
80732;SDS011;70130;44.534;18.678;2023-09-07T08:08:16;17.98;;;10.90;;
80732;SDS011;70130;44.534;18.678;2023-09-07T08:10:44;16.70;;;10.15;;
80732;SDS011;70130;44.534;18.678;2023-09-07T08:13:11;14.93;;;11.00;;
80732;SDS011;70130;44.534;18.678;2023-09-07T08:15:37;16.33;;;9.85;;
80732;SDS011;70130;44.534;18.678;2023-09-07T08:18:04;18.67;;;11.43;;
80732;SDS011;70130;44.534;18.678;2023-09-07T08:20:31;17.75;;;10.93;;
80732;SDS011;70130;44.534;18.678;2023-09-07T08:22:58;16.80;;;11.10;;
80732;SDS011;70130;44.534;18.678;2023-09-07T08:25:24;23.35;;;11.50;;
80732;SDS011;70130;44.534;18.678;2023-09-07T08:27:51;17.88;;;10.68;;
80732;SDS011;70130;44.534;18.678;2023-09-07T08:30:18;18.60;;;10.88;;
80732;SDS011;70130;44.534;18.678;2023-09-07T08:32:47;20.52;;;11.90;;
80732;SDS011;70130;44.534;18.678;2023-09-07T08:35:16;17.35;;;10.70;;
80732;SDS011;70130;44.534;18.678;2023-09-07T08:37:42;15.35;;;10.05;;
80732;SDS011;70130;44.534;18.678;2023-09-07T08:40:08;15.95;;;10.02;;
80732;SDS011;70130;44.534;18.678;2023-09-07T08:42:36;17.70;;;10.63;;
80732;SDS011;70130;44.534;18.678;2023-09-07T08:45:02;17.70;;;11.38;;
80732;SDS011;70130;44.534;18.678;2023-09-07T08:47:35;23.67;;;11.95;;
80732;SDS011;70130;44.534;18.678;2023-09-07T08:50:01;22.07;;;10.93;;
80732;SDS011;70130;44.534;18.678;2023-09-07T08:52:29;18.35;;;11.13;;
80732;SDS011;70130;44.534;18.678;2023-09-07T08:54:55;16.42;;;10.77;;
80732;SDS011;70130;44.534;18.678;2023-09-07T08:57:24;17.33;;;11.60;;
80732;SDS011;70130;44.534;18.678;2023-09-07T08:59:50;15.57;;;10.65;;
80732;SDS011;70130;44.534;18.678;2023-09-07T09:02:15;16.42;;;10.40;;
80732;SDS011;70130;44.534;18.678;2023-09-07T09:04:42;13.13;;;9.70;;
80732;SDS011;70130;44.534;18.678;2023-09-07T09:07:10;13.15;;;9.25;;
80732;SDS011;70130;44.534;18.678;2023-09-07T09:09:35;13.98;;;8.63;;
80732;SDS011;70130;44.534;18.678;2023-09-07T09:12:10;13.27;;;9.20;;
80732;SDS011;70130;44.534;18.678;2023-09-07T09:14:36;18.05;;;9.82;;
80732;SDS011;70130;44.534;18.678;2023-09-07T09:17:01;13.27;;;9.45;;
80732;SDS011;70130;44.534;18.678;2023-09-07T09:19:33;15.13;;;8.65;;
80732;SDS011;70130;44.534;18.678;2023-09-07T09:22:00;11.52;;;8.02;;
80732;SDS011;70130;44.534;18.678;2023-09-07T09:24:26;12.88;;;8.80;;
80732;SDS011;70130;44.534;18.678;2023-09-07T09:26:52;11.52;;;7.68;;
80732;SDS011;70130;44.534;18.678;2023-09-07T09:29:21;10.70;;;7.75;;
80732;SDS011;70130;44.534;18.678;2023-09-07T09:31:51;11.73;;;8.13;;
80732;SDS011;70130;44.534;18.678;2023-09-07T09:34:18;14.93;;;8.15;;
80732;SDS011;70130;44.534;18.678;2023-09-07T09:36:44;11.10;;;8.15;;
80732;SDS011;70130;44.534;18.678;2023-09-07T09:39:10;13.35;;;8.70;;
80732;SDS011;70130;44.534;18.678;2023-09-07T09:41:46;11.00;;;7.95;;
80732;SDS011;70130;44.534;18.678;2023-09-07T09:44:12;10.77;;;7.82;;
80732;SDS011;70130;44.534;18.678;2023-09-07T09:46:40;6.63;;;4.70;;
80732;SDS011;70130;44.534;18.678;2023-09-07T09:49:07;9.48;;;5.07;;
80732;SDS011;70130;44.534;18.678;2023-09-07T09:51:36;16.13;;;6.93;;
80732;SDS011;70130;44.534;18.678;2023-09-07T09:54:04;7.07;;;5.05;;
80732;SDS011;70130;44.534;18.678;2023-09-07T09:56:31;5.97;;;5.10;;
80732;SDS011;70130;44.534;18.678;2023-09-07T09:58:57;9.18;;;4.68;;
80732;SDS011;70130;44.534;18.678;2023-09-07T10:01:22;8.18;;;5.13;;
80732;SDS011;70130;44.534;18.678;2023-09-07T10:03:48;7.35;;;4.68;;
80732;SDS011;70130;44.534;18.678;2023-09-07T10:06:19;6.38;;;4.93;;
80732;SDS011;70130;44.534;18.678;2023-09-07T10:08:52;9.13;;;5.13;;
80732;SDS011;70130;44.534;18.678;2023-09-07T10:11:30;7.18;;;5.07;;
80732;SDS011;70130;44.534;18.678;2023-09-07T10:14:00;4.95;;;4.05;;
80732;SDS011;70130;44.534;18.678;2023-09-07T10:16:46;6.10;;;4.32;;
80732;SDS011;70130;44.534;18.678;2023-09-07T10:19:16;6.85;;;4.90;;
80732;SDS011;70130;44.534;18.678;2023-09-07T10:21:43;12.23;;;4.85;;
80732;SDS011;70130;44.534;18.678;2023-09-07T10:24:09;9.13;;;4.88;;
80732;SDS011;70130;44.534;18.678;2023-09-07T10:26:35;9.57;;;4.38;;
80732;SDS011;70130;44.534;18.678;2023-09-07T10:29:00;6.60;;;5.63;;
80732;SDS011;70130;44.534;18.678;2023-09-07T10:31:29;7.32;;;5.03;;
80732;SDS011;70130;44.534;18.678;2023-09-07T10:34:07;8.63;;;4.30;;
80732;SDS011;70130;44.534;18.678;2023-09-07T10:36:35;7.88;;;4.10;;
80732;SDS011;70130;44.534;18.678;2023-09-07T10:39:02;5.95;;;4.63;;
80732;SDS011;70130;44.534;18.678;2023-09-07T10:41:38;6.07;;;4.93;;
80732;SDS011;70130;44.534;18.678;2023-09-07T10:44:06;7.35;;;4.82;;
80732;SDS011;70130;44.534;18.678;2023-09-07T10:46:31;6.25;;;4.25;;
80732;SDS011;70130;44.534;18.678;2023-09-07T10:48:57;6.78;;;4.50;;
80732;SDS011;70130;44.534;18.678;2023-09-07T10:51:22;5.57;;;4.63;;
80732;SDS011;70130;44.534;18.678;2023-09-07T10:53:48;7.75;;;4.38;;
80732;SDS011;70130;44.534;18.678;2023-09-07T10:56:14;10.13;;;4.40;;
80732;SDS011;70130;44.534;18.678;2023-09-07T10:58:40;5.80;;;4.40;;
80732;SDS011;70130;44.534;18.678;2023-09-07T11:01:07;5.95;;;4.45;;
80732;SDS011;70130;44.534;18.678;2023-09-07T11:03:34;10.45;;;5.88;;
80732;SDS011;70130;44.534;18.678;2023-09-07T11:08:30;8.13;;;5.45;;
80732;SDS011;70130;44.534;18.678;2023-09-07T11:10:55;6.15;;;4.70;;
80732;SDS011;70130;44.534;18.678;2023-09-07T11:13:21;6.30;;;5.25;;
80732;SDS011;70130;44.534;18.678;2023-09-07T11:15:49;8.20;;;6.30;;
80732;SDS011;70130;44.534;18.678;2023-09-07T11:18:21;7.85;;;5.50;;
80732;SDS011;70130;44.534;18.678;2023-09-07T11:20:48;6.63;;;5.35;;
80732;SDS011;70130;44.534;18.678;2023-09-07T11:23:15;12.00;;;5.05;;
80732;SDS011;70130;44.534;18.678;2023-09-07T11:25:42;7.68;;;5.38;;
80732;SDS011;70130;44.534;18.678;2023-09-07T11:28:08;8.10;;;5.25;;
80732;SDS011;70130;44.534;18.678;2023-09-07T11:30:35;8.10;;;5.95;;
80732;SDS011;70130;44.534;18.678;2023-09-07T11:33:01;9.20;;;5.32;;
80732;SDS011;70130;44.534;18.678;2023-09-07T11:35:31;9.77;;;5.93;;
80732;SDS011;70130;44.534;18.678;2023-09-07T11:37:59;8.63;;;5.10;;
80732;SDS011;70130;44.534;18.678;2023-09-07T11:40:33;6.55;;;5.30;;
80732;SDS011;70130;44.534;18.678;2023-09-07T11:42:58;11.15;;;6.00;;
80732;SDS011;70130;44.534;18.678;2023-09-07T11:45:24;11.75;;;5.20;;
80732;SDS011;70130;44.534;18.678;2023-09-07T11:47:50;8.20;;;5.45;;
80732;SDS011;70130;44.534;18.678;2023-09-07T11:50:19;8.50;;;5.35;;
80732;SDS011;70130;44.534;18.678;2023-09-07T11:52:45;7.28;;;5.35;;
80732;SDS011;70130;44.534;18.678;2023-09-07T11:55:13;7.15;;;5.85;;
80732;SDS011;70130;44.534;18.678;2023-09-07T11:57:39;9.85;;;5.88;;
80732;SDS011;70130;44.534;18.678;2023-09-07T12:00:06;8.85;;;6.47;;
80732;SDS011;70130;44.534;18.678;2023-09-07T12:02:39;8.43;;;5.20;;
80732;SDS011;70130;44.534;18.678;2023-09-07T12:05:05;8.25;;;5.63;;
80732;SDS011;70130;44.534;18.678;2023-09-07T12:07:33;7.57;;;5.40;;
80732;SDS011;70130;44.534;18.678;2023-09-07T12:09:59;7.07;;;4.97;;
80732;SDS011;70130;44.534;18.678;2023-09-07T12:12:25;7.25;;;5.75;;
80732;SDS011;70130;44.534;18.678;2023-09-07T12:14:51;10.50;;;6.35;;
80732;SDS011;70130;44.534;18.678;2023-09-07T12:17:16;8.00;;;5.55;;
80732;SDS011;70130;44.534;18.678;2023-09-07T12:19:43;8.07;;;5.03;;
80732;SDS011;70130;44.534;18.678;2023-09-07T12:22:11;9.23;;;5.90;;
80732;SDS011;70130;44.534;18.678;2023-09-07T12:24:37;6.57;;;5.25;;
80732;SDS011;70130;44.534;18.678;2023-09-07T12:27:03;7.68;;;5.20;;
80732;SDS011;70130;44.534;18.678;2023-09-07T12:29:29;5.97;;;4.82;;
80732;SDS011;70130;44.534;18.678;2023-09-07T12:31:54;6.50;;;4.88;;
80732;SDS011;70130;44.534;18.678;2023-09-07T12:34:20;8.32;;;6.10;;
80732;SDS011;70130;44.534;18.678;2023-09-07T12:36:46;6.05;;;4.68;;
80732;SDS011;70130;44.534;18.678;2023-09-07T12:39:11;5.57;;;4.03;;
80732;SDS011;70130;44.534;18.678;2023-09-07T12:41:38;9.10;;;5.85;;
80732;SDS011;70130;44.534;18.678;2023-09-07T12:44:04;8.55;;;5.70;;
80732;SDS011;70130;44.534;18.678;2023-09-07T12:46:30;8.27;;;5.25;;
80732;SDS011;70130;44.534;18.678;2023-09-07T12:48:56;12.25;;;6.57;;
80732;SDS011;70130;44.534;18.678;2023-09-07T12:51:21;10.40;;;5.53;;
80732;SDS011;70130;44.534;18.678;2023-09-07T12:53:47;7.18;;;4.70;;
80732;SDS011;70130;44.534;18.678;2023-09-07T12:56:12;6.28;;;4.75;;
80732;SDS011;70130;44.534;18.678;2023-09-07T12:58:38;9.27;;;4.78;;
80732;SDS011;70130;44.534;18.678;2023-09-07T13:01:04;5.47;;;3.80;;
80732;SDS011;70130;44.534;18.678;2023-09-07T13:03:29;6.20;;;4.22;;
80732;SDS011;70130;44.534;18.678;2023-09-07T13:05:55;5.60;;;4.30;;
80732;SDS011;70130;44.534;18.678;2023-09-07T13:08:20;5.65;;;4.47;;
80732;SDS011;70130;44.534;18.678;2023-09-07T13:10:46;14.38;;;4.75;;
80732;SDS011;70130;44.534;18.678;2023-09-07T13:13:12;9.85;;;4.80;;
80732;SDS011;70130;44.534;18.678;2023-09-07T13:15:37;6.90;;;4.80;;
80732;SDS011;70130;44.534;18.678;2023-09-07T13:18:03;11.30;;;5.20;;
80732;SDS011;70130;44.534;18.678;2023-09-07T13:20:29;10.48;;;5.15;;
80732;SDS011;70130;44.534;18.678;2023-09-07T13:22:55;5.35;;;4.40;;
80732;SDS011;70130;44.534;18.678;2023-09-07T13:25:20;9.10;;;5.85;;
80732;SDS011;70130;44.534;18.678;2023-09-07T13:27:46;6.45;;;4.57;;
80732;SDS011;70130;44.534;18.678;2023-09-07T13:30:11;7.70;;;5.00;;
80732;SDS011;70130;44.534;18.678;2023-09-07T13:32:37;7.43;;;5.03;;
80732;SDS011;70130;44.534;18.678;2023-09-07T13:35:03;8.98;;;5.13;;
80732;SDS011;70130;44.534;18.678;2023-09-07T13:37:29;9.35;;;5.90;;
80732;SDS011;70130;44.534;18.678;2023-09-07T13:39:55;6.88;;;5.15;;
80732;SDS011;70130;44.534;18.678;2023-09-07T13:42:21;9.38;;;4.78;;
80732;SDS011;70130;44.534;18.678;2023-09-07T13:44:46;6.15;;;4.90;;
80732;SDS011;70130;44.534;18.678;2023-09-07T13:47:12;6.18;;;4.88;;
80732;SDS011;70130;44.534;18.678;2023-09-07T13:49:38;8.75;;;4.90;;
80732;SDS011;70130;44.534;18.678;2023-09-07T13:52:04;8.50;;;5.32;;
80732;SDS011;70130;44.534;18.678;2023-09-07T13:54:29;8.63;;;5.43;;
80732;SDS011;70130;44.534;18.678;2023-09-07T13:56:55;8.30;;;4.72;;
80732;SDS011;70130;44.534;18.678;2023-09-07T13:59:21;10.85;;;5.45;;
80732;SDS011;70130;44.534;18.678;2023-09-07T14:01:46;6.88;;;5.60;;
80732;SDS011;70130;44.534;18.678;2023-09-07T14:04:13;6.18;;;4.40;;
80732;SDS011;70130;44.534;18.678;2023-09-07T14:06:38;6.20;;;4.97;;
80732;SDS011;70130;44.534;18.678;2023-09-07T14:09:04;7.43;;;4.68;;
80732;SDS011;70130;44.534;18.678;2023-09-07T14:11:32;8.52;;;5.13;;
80732;SDS011;70130;44.534;18.678;2023-09-07T14:13:58;8.93;;;6.15;;
80732;SDS011;70130;44.534;18.678;2023-09-07T14:16:24;11.20;;;5.63;;
80732;SDS011;70130;44.534;18.678;2023-09-07T14:18:49;7.32;;;4.43;;
80732;SDS011;70130;44.534;18.678;2023-09-07T14:21:15;7.97;;;6.95;;
80732;SDS011;70130;44.534;18.678;2023-09-07T14:23:42;11.27;;;5.75;;
80732;SDS011;70130;44.534;18.678;2023-09-07T14:26:08;6.97;;;4.82;;
80732;SDS011;70130;44.534;18.678;2023-09-07T14:28:34;7.70;;;4.82;;
80732;SDS011;70130;44.534;18.678;2023-09-07T14:31:00;9.15;;;5.82;;
80732;SDS011;70130;44.534;18.678;2023-09-07T14:33:29;6.20;;;4.50;;
80732;SDS011;70130;44.534;18.678;2023-09-07T14:35:55;7.25;;;4.07;;